sensor_id;sensor_type;location;lat;lon;timestamp;pressure;altitude;pressure_sealevel;temperature;humidity
35758;BME280;21879;50.110;18.900;2024-01-11T00:04:48;99843.84;;;22.16;41.79
35758;BME280;21879;50.110;18.900;2024-01-11T00:15:16;99823.30;;;22.16;41.54
35758;BME280;21879;50.110;18.900;2024-01-11T00:25:44;99802.98;;;22.14;41.42
35758;BME280;21879;50.110;18.900;2024-01-11T00:36:18;99798.86;;;22.10;41.08
35758;BME280;21879;50.110;18.900;2024-01-11T00:46:46;99795.04;;;22.08;40.89
35758;BME280;21879;50.110;18.900;2024-01-11T00:57:14;99787.45;;;22.08;40.77
35758;BME280;21879;50.110;18.900;2024-01-11T01:07:45;99772.48;;;22.05;40.73
35758;BME280;21879;50.110;18.900;2024-01-11T01:18:13;99770.09;;;22.03;40.66
35758;BME280;21879;50.110;18.900;2024-01-11T01:28:41;99780.30;;;22.00;40.50
35758;BME280;21879;50.110;18.900;2024-01-11T01:39:09;99773.79;;;21.99;40.34
35758;BME280;21879;50.110;18.900;2024-01-11T01:49:37;99766.95;;;21.97;40.26
35758;BME280;21879;50.110;18.900;2024-01-11T02:00:07;99759.13;;;21.98;39.86
35758;BME280;21879;50.110;18.900;2024-01-11T02:10:36;99757.27;;;22.00;39.71
35758;BME280;21879;50.110;18.900;2024-01-11T02:21:06;99744.64;;;22.06;39.58
35758;BME280;21879;50.110;18.900;2024-01-11T02:31:36;99738.14;;;22.10;39.78
35758;BME280;21879;50.110;18.900;2024-01-11T02:42:05;99733.80;;;22.07;39.52
35758;BME280;21879;50.110;18.900;2024-01-11T02:52:32;99730.06;;;22.03;39.57
35758;BME280;21879;50.110;18.900;2024-01-11T03:03:00;99723.30;;;21.99;39.45
35758;BME280;21879;50.110;18.900;2024-01-11T03:13:28;99739.36;;;21.96;39.52
35758;BME280;21879;50.110;18.900;2024-01-11T03:23:56;99735.34;;;21.95;39.39
35758;BME280;21879;50.110;18.900;2024-01-11T03:34:26;99726.42;;;21.92;39.32
35758;BME280;21879;50.110;18.900;2024-01-11T03:44:54;99697.53;;;21.89;39.09
35758;BME280;21879;50.110;18.900;2024-01-11T03:55:22;99697.03;;;21.88;39.03
35758;BME280;21879;50.110;18.900;2024-01-11T04:05:50;99689.39;;;21.88;39.60
35758;BME280;21879;50.110;18.900;2024-01-11T04:16:18;99705.33;;;21.89;39.77
35758;BME280;21879;50.110;18.900;2024-01-11T04:26:45;99702.91;;;21.87;39.63
35758;BME280;21879;50.110;18.900;2024-01-11T04:37:13;99688.98;;;21.86;39.71
35758;BME280;21879;50.110;18.900;2024-01-11T04:47:41;99679.19;;;21.83;39.51
35758;BME280;21879;50.110;18.900;2024-01-11T04:58:09;99686.02;;;21.80;39.27
35758;BME280;21879;50.110;18.900;2024-01-11T05:08:37;99672.42;;;21.78;39.13
35758;BME280;21879;50.110;18.900;2024-01-11T05:19:05;99690.77;;;21.76;38.92
35758;BME280;21879;50.110;18.900;2024-01-11T05:29:34;99676.81;;;21.75;38.93
35758;BME280;21879;50.110;18.900;2024-01-11T05:40:02;99648.92;;;21.73;38.85
35758;BME280;21879;50.110;18.900;2024-01-11T05:50:30;99627.80;;;21.70;38.51
35758;BME280;21879;50.110;18.900;2024-01-11T06:00:58;99646.19;;;21.67;38.26
35758;BME280;21879;50.110;18.900;2024-01-11T06:11:26;99642.17;;;21.65;38.18
35758;BME280;21879;50.110;18.900;2024-01-11T06:21:54;99632.97;;;21.65;38.07
35758;BME280;21879;50.110;18.900;2024-01-11T06:32:23;99640.06;;;21.65;38.10
35758;BME280;21879;50.110;18.900;2024-01-11T06:42:50;99637.78;;;21.64;37.91
35758;BME280;21879;50.110;18.900;2024-01-11T06:53:18;99607.20;;;21.64;37.68
35758;BME280;21879;50.110;18.900;2024-01-11T07:03:46;99587.23;;;21.63;37.73
35758;BME280;21879;50.110;18.900;2024-01-11T07:14:14;99558.97;;;21.62;37.46
35758;BME280;21879;50.110;18.900;2024-01-11T07:24:42;99553.91;;;21.60;37.46
35758;BME280;21879;50.110;18.900;2024-01-11T07:35:11;99536.37;;;21.60;37.40
35758;BME280;21879;50.110;18.900;2024-01-11T07:45:44;99526.27;;;21.61;37.26
35758;BME280;21879;50.110;18.900;2024-01-11T07:56:12;99558.86;;;21.60;37.17
35758;BME280;21879;50.110;18.900;2024-01-11T08:06:40;99558.55;;;21.59;37.01
35758;BME280;21879;50.110;18.900;2024-01-11T08:17:08;99526.91;;;21.58;36.86
35758;BME280;21879;50.110;18.900;2024-01-11T08:27:36;99506.76;;;21.57;36.97
35758;BME280;21879;50.110;18.900;2024-01-11T08:38:04;99497.94;;;21.57;36.78
35758;BME280;21879;50.110;18.900;2024-01-11T08:48:32;99494.39;;;21.57;36.59
35758;BME280;21879;50.110;18.900;2024-01-11T08:59:00;99490.63;;;21.58;36.65
35758;BME280;21879;50.110;18.900;2024-01-11T09:09:28;99508.95;;;21.60;36.64
35758;BME280;21879;50.110;18.900;2024-01-11T09:19:59;99527.39;;;21.59;36.66
35758;BME280;21879;50.110;18.900;2024-01-11T09:30:27;99526.41;;;21.57;36.65
35758;BME280;21879;50.110;18.900;2024-01-11T09:41:03;99527.15;;;21.56;36.44
35758;BME280;21879;50.110;18.900;2024-01-11T09:51:35;99509.83;;;21.55;36.57
35758;BME280;21879;50.110;18.900;2024-01-11T10:02:05;99498.52;;;21.55;36.55
35758;BME280;21879;50.110;18.900;2024-01-11T10:12:37;99469.02;;;21.54;36.85
35758;BME280;21879;50.110;18.900;2024-01-11T10:23:05;99458.85;;;21.52;36.72
35758;BME280;21879;50.110;18.900;2024-01-11T10:33:34;99450.66;;;21.49;36.48
35758;BME280;21879;50.110;18.900;2024-01-11T10:44:04;99435.48;;;21.48;36.19
35758;BME280;21879;50.110;18.900;2024-01-11T10:54:35;99421.42;;;21.50;35.77
35758;BME280;21879;50.110;18.900;2024-01-11T11:05:05;99402.63;;;21.51;35.56
35758;BME280;21879;50.110;18.900;2024-01-11T11:15:37;99381.26;;;21.50;35.31
35758;BME280;21879;50.110;18.900;2024-01-11T11:26:07;99372.23;;;21.50;35.05
35758;BME280;21879;50.110;18.900;2024-01-11T11:36:42;99363.00;;;21.51;35.03
35758;BME280;21879;50.110;18.900;2024-01-11T11:47:22;99339.94;;;21.52;35.10
35758;BME280;21879;50.110;18.900;2024-01-11T11:57:51;99328.76;;;21.53;35.06
35758;BME280;21879;50.110;18.900;2024-01-11T12:08:19;99311.73;;;21.54;35.06
35758;BME280;21879;50.110;18.900;2024-01-11T12:18:50;99308.77;;;21.53;35.21
35758;BME280;21879;50.110;18.900;2024-01-11T12:29:18;99296.65;;;21.51;35.06
35758;BME280;21879;50.110;18.900;2024-01-11T12:39:46;99284.88;;;21.49;34.86
35758;BME280;21879;50.110;18.900;2024-01-11T12:50:15;99263.13;;;21.49;35.02
35758;BME280;21879;50.110;18.900;2024-01-11T13:00:43;99253.44;;;21.48;35.04
35758;BME280;21879;50.110;18.900;2024-01-11T13:11:10;99247.45;;;21.48;35.34
35758;BME280;21879;50.110;18.900;2024-01-11T13:21:40;99228.67;;;21.48;35.26
35758;BME280;21879;50.110;18.900;2024-01-11T13:32:09;99212.44;;;21.47;35.26
35758;BME280;21879;50.110;18.900;2024-01-11T13:42:37;99191.18;;;21.48;35.35
35758;BME280;21879;50.110;18.900;2024-01-11T13:53:05;99205.33;;;21.44;34.59
35758;BME280;21879;50.110;18.900;2024-01-11T14:03:33;99213.20;;;21.42;34.89
35758;BME280;21879;50.110;18.900;2024-01-11T14:14:01;99218.73;;;21.41;34.72
35758;BME280;21879;50.110;18.900;2024-01-11T14:24:29;99217.33;;;21.41;34.64
35758;BME280;21879;50.110;18.900;2024-01-11T14:35:03;99216.40;;;21.41;34.77
35758;BME280;21879;50.110;18.900;2024-01-11T14:45:31;99225.72;;;21.43;34.97
35758;BME280;21879;50.110;18.900;2024-01-11T14:56:00;99248.66;;;21.48;37.30
35758;BME280;21879;50.110;18.900;2024-01-11T15:06:28;99273.75;;;21.57;38.21
35758;BME280;21879;50.110;18.900;2024-01-11T15:16:56;99272.70;;;21.60;37.76
35758;BME280;21879;50.110;18.900;2024-01-11T15:27:24;99268.35;;;21.62;37.88
35758;BME280;21879;50.110;18.900;2024-01-11T15:37:52;99264.36;;;21.65;38.21
35758;BME280;21879;50.110;18.900;2024-01-11T15:48:20;99267.14;;;21.66;37.81
35758;BME280;21879;50.110;18.900;2024-01-11T15:58:48;99279.67;;;21.66;38.17
35758;BME280;21879;50.110;18.900;2024-01-11T16:09:16;99285.77;;;21.73;39.85
35758;BME280;21879;50.110;18.900;2024-01-11T16:19:44;99288.34;;;21.74;39.41
35758;BME280;21879;50.110;18.900;2024-01-11T16:30:13;99300.80;;;21.73;39.08
35758;BME280;21879;50.110;18.900;2024-01-11T16:40:41;99303.48;;;21.72;38.75
35758;BME280;21879;50.110;18.900;2024-01-11T16:51:08;99314.02;;;21.74;38.76
35758;BME280;21879;50.110;18.900;2024-01-11T17:01:36;99323.85;;;21.76;38.61
35758;BME280;21879;50.110;18.900;2024-01-11T17:12:05;99337.06;;;21.77;38.58
35758;BME280;21879;50.110;18.900;2024-01-11T17:22:33;99311.38;;;21.77;38.63
35758;BME280;21879;50.110;18.900;2024-01-11T17:33:01;99310.36;;;21.76;38.70
35758;BME280;21879;50.110;18.900;2024-01-11T17:43:29;99319.36;;;21.77;38.66
35758;BME280;21879;50.110;18.900;2024-01-11T17:53:57;99329.44;;;21.81;38.30
35758;BME280;21879;50.110;18.900;2024-01-11T18:04:24;99317.38;;;21.86;38.18
35758;BME280;21879;50.110;18.900;2024-01-11T18:14:52;99325.50;;;21.90;38.12
35758;BME280;21879;50.110;18.900;2024-01-11T18:25:20;99323.80;;;21.93;37.99
35758;BME280;21879;50.110;18.900;2024-01-11T18:35:49;99322.81;;;21.95;38.03
35758;BME280;21879;50.110;18.900;2024-01-11T18:46:17;99320.25;;;21.96;38.23
35758;BME280;21879;50.110;18.900;2024-01-11T18:56:46;99315.23;;;21.98;38.19
35758;BME280;21879;50.110;18.900;2024-01-11T19:07:15;99320.16;;;21.98;38.09
35758;BME280;21879;50.110;18.900;2024-01-11T19:17:42;99307.20;;;21.99;38.09
35758;BME280;21879;50.110;18.900;2024-01-11T19:28:11;99306.16;;;21.99;38.04
35758;BME280;21879;50.110;18.900;2024-01-11T19:38:39;99316.67;;;21.94;38.39
35758;BME280;21879;50.110;18.900;2024-01-11T19:49:07;99311.77;;;21.89;38.81
35758;BME280;21879;50.110;18.900;2024-01-11T19:59:35;99312.41;;;21.90;41.40
35758;BME280;21879;50.110;18.900;2024-01-11T20:10:04;99309.38;;;21.94;43.12
35758;BME280;21879;50.110;18.900;2024-01-11T20:20:46;99311.63;;;21.99;43.80
35758;BME280;21879;50.110;18.900;2024-01-11T20:31:13;99326.95;;;22.04;44.31
35758;BME280;21879;50.110;18.900;2024-01-11T20:41:45;99333.05;;;22.11;44.63
35758;BME280;21879;50.110;18.900;2024-01-11T20:52:13;99329.06;;;22.17;44.35
35758;BME280;21879;50.110;18.900;2024-01-11T21:02:41;99334.70;;;22.18;43.55
35758;BME280;21879;50.110;18.900;2024-01-11T21:13:09;99340.48;;;22.15;43.05
35758;BME280;21879;50.110;18.900;2024-01-11T21:23:38;99368.23;;;22.12;42.52
35758;BME280;21879;50.110;18.900;2024-01-11T21:34:06;99389.11;;;22.09;42.24
35758;BME280;21879;50.110;18.900;2024-01-11T21:44:34;99389.77;;;22.05;41.90
35758;BME280;21879;50.110;18.900;2024-01-11T21:55:02;99385.83;;;22.03;41.72
35758;BME280;21879;50.110;18.900;2024-01-11T22:05:34;99386.29;;;22.00;41.38
35758;BME280;21879;50.110;18.900;2024-01-11T22:16:02;99382.73;;;21.97;41.25
35758;BME280;21879;50.110;18.900;2024-01-11T22:26:32;99384.63;;;21.94;41.01
35758;BME280;21879;50.110;18.900;2024-01-11T22:37:00;99390.41;;;21.92;40.85
35758;BME280;21879;50.110;18.900;2024-01-11T22:47:28;99383.86;;;21.88;40.71
35758;BME280;21879;50.110;18.900;2024-01-11T22:57:56;99381.69;;;21.85;40.48
35758;BME280;21879;50.110;18.900;2024-01-11T23:08:24;99377.40;;;21.81;40.31
35758;BME280;21879;50.110;18.900;2024-01-11T23:18:52;99378.42;;;21.78;40.07
35758;BME280;21879;50.110;18.900;2024-01-11T23:29:20;99379.58;;;21.76;39.83
35758;BME280;21879;50.110;18.900;2024-01-11T23:39:48;99393.67;;;21.74;39.57
35758;BME280;21879;50.110;18.900;2024-01-11T23:50:16;99395.37;;;21.71;39.43
